ELY372 LPPT-LLBG
Flight info
| Callsign | ELY372 |
|---|---|
| Flight time | N/A |
| Altitude | 34000 |
| Route | ORVED DCT RODAP DCT UREDI DCT DIPOL DCT RBO DCT PINAR DCT SEGRE DCT BRITO DCT PISUS DCT PONEN DCT SEROX DCT VILAR DCT KARES DCT BISES DCT BCN/N0448F350 DCT DIPES/N0446F340 N725 OSPOK/N0446F350 DCT NOLVI DCT ORKUM/N0444F340 DCT ELSAG DCT ALG/N0447F350 DCT QUENN DCT LODPA DCT CRN DCT ADREN DCT TOMGI DCT RUTOM DCT TRL DCT SOTIX DCT VAXOS UN134 VANZA DCT PIKOG L609 ZUKKO |
| Aircraft | B738/M-SDE2E3FGHIRWXY/LB1 |
Departure
| Time | 2026-05-05 18:30 |
|---|---|
| Airport | Lisbon Humberto Delgado Airport (LPPT) |
Arrival
| Time | N/A |
|---|---|
| Airport | Ben Gurion International Airport (LLBG) |
| Time | Latitude | Longitude | Altitude | Speed | Heading |
|---|---|---|---|---|---|
| 2026-05-05 17:16 | 38.77429 | -9.13152 | 350 ft | 0 kts | 78° |
| 2026-05-05 18:15 | 38.77424 | -9.13180 | 360 ft | 4 kts | 78° |
| 2026-05-05 18:15 | 38.77419 | -9.13213 | 358 ft | 4 kts | 78° |
| 2026-05-05 18:15 | 38.77415 | -9.13240 | 355 ft | 4 kts | 84° |
| 2026-05-05 18:15 | 38.77417 | -9.13270 | 356 ft | 4 kts | 131° |
| 2026-05-05 18:16 | 38.77436 | -9.13281 | 354 ft | 4 kts | 168° |
| 2026-05-05 18:16 | 38.77447 | -9.13284 | 355 ft | 0 kts | 168° |
| 2026-05-05 18:22 | 38.77444 | -9.13284 | 355 ft | 1 kts | 168° |
| 2026-05-05 18:22 | 38.77427 | -9.13279 | 360 ft | 4 kts | 167° |
| 2026-05-05 18:22 | 38.77396 | -9.13270 | 358 ft | 5 kts | 167° |
| 2026-05-05 18:22 | 38.77364 | -9.13260 | 352 ft | 5 kts | 167° |
| 2026-05-05 18:23 | 38.77342 | -9.13267 | 358 ft | 0 kts | 226° |
| 2026-05-05 18:24 | 38.77341 | -9.13269 | 357 ft | 1 kts | 227° |
| 2026-05-05 18:25 | 38.77328 | -9.13305 | 355 ft | 8 kts | 257° |
| 2026-05-05 18:25 | 38.77318 | -9.13362 | 353 ft | 11 kts | 257° |
| 2026-05-05 18:25 | 38.77297 | -9.13487 | 350 ft | 11 kts | 259° |
| 2026-05-05 18:25 | 38.77280 | -9.13596 | 350 ft | 14 kts | 258° |
| 2026-05-05 18:26 | 38.77258 | -9.13728 | 357 ft | 16 kts | 258° |
| 2026-05-05 18:26 | 38.77207 | -9.13857 | 358 ft | 17 kts | 210° |
| 2026-05-05 18:26 | 38.77102 | -9.13915 | 355 ft | 16 kts | 203° |
| 2026-05-05 18:26 | 38.77000 | -9.13970 | 353 ft | 15 kts | 203° |
| 2026-05-05 18:27 | 38.76903 | -9.14022 | 355 ft | 15 kts | 203° |
| 2026-05-05 18:27 | 38.76809 | -9.14071 | 355 ft | 14 kts | 202° |
| 2026-05-05 18:27 | 38.76720 | -9.14120 | 358 ft | 14 kts | 202° |
| 2026-05-05 18:27 | 38.76634 | -9.14165 | 350 ft | 13 kts | 203° |
| 2026-05-05 18:28 | 38.76605 | -9.14276 | 356 ft | 7 kts | 295° |
| 2026-05-05 18:28 | 38.76627 | -9.14337 | 351 ft | 8 kts | 294° |
| 2026-05-05 18:28 | 38.76655 | -9.14381 | 352 ft | 6 kts | 357° |
| 2026-05-05 18:29 | 38.76687 | -9.14366 | 354 ft | 3 kts | 23° |
| 2026-05-05 18:29 | 38.76813 | -9.14299 | 352 ft | 49 kts | 23° |
| 2026-05-05 18:29 | 38.77339 | -9.14017 | 357 ft | 112 kts | 22° |
| 2026-05-05 18:29 | 38.78229 | -9.13540 | 366 ft | 162 kts | 17° |
| 2026-05-05 18:30 | 38.79295 | -9.12943 | 940 ft | 166 kts | 19° |
| 2026-05-05 18:30 | 38.80348 | -9.12286 | 1669 ft | 173 kts | 23° |
| 2026-05-05 18:30 | 38.81442 | -9.11567 | 2256 ft | 179 kts | 21° |
| 2026-05-05 18:30 | 38.82545 | -9.10791 | 2943 ft | 182 kts | 25° |
| 2026-05-05 18:31 | 38.83648 | -9.09972 | 3586 ft | 183 kts | 26° |
| 2026-05-05 18:31 | 38.84742 | -9.09152 | 4257 ft | 181 kts | 26° |
| 2026-05-05 18:31 | 38.85891 | -9.08293 | 4503 ft | 201 kts | 26° |
| 2026-05-05 18:31 | 38.87160 | -9.07344 | 4688 ft | 221 kts | 27° |
| 2026-05-05 18:32 | 38.88495 | -9.06289 | 5132 ft | 230 kts | 35° |
| 2026-05-05 18:32 | 38.89706 | -9.04799 | 5327 ft | 254 kts | 45° |
| 2026-05-05 18:32 | 38.90711 | -9.02857 | 5854 ft | 267 kts | 59° |
| 2026-05-05 18:32 | 38.91522 | -9.00722 | 6685 ft | 266 kts | 62° |
| 2026-05-05 18:33 | 38.92307 | -8.98528 | 7276 ft | 274 kts | 62° |
| 2026-05-05 18:33 | 38.93109 | -8.96286 | 7926 ft | 278 kts | 62° |
| 2026-05-05 18:33 | 38.93928 | -8.94012 | 8614 ft | 281 kts | 61° |
| 2026-05-05 18:33 | 38.94764 | -8.91720 | 9305 ft | 285 kts | 61° |
| 2026-05-05 18:34 | 38.95605 | -8.89433 | 9969 ft | 289 kts | 60° |
| 2026-05-05 18:34 | 38.96481 | -8.87063 | 10399 ft | 301 kts | 61° |
| 2026-05-05 18:34 | 38.97417 | -8.84544 | 10542 ft | 323 kts | 61° |
| 2026-05-05 18:34 | 38.98416 | -8.81860 | 10726 ft | 342 kts | 61° |
| 2026-05-05 18:35 | 38.99457 | -8.79057 | 11190 ft | 351 kts | 61° |
| 2026-05-05 18:35 | 39.00513 | -8.76201 | 11781 ft | 356 kts | 61° |
| 2026-05-05 18:35 | 39.01581 | -8.73313 | 12396 ft | 360 kts | 61° |
| 2026-05-05 18:35 | 39.02664 | -8.70386 | 12995 ft | 365 kts | 61° |
| 2026-05-05 18:36 | 39.03761 | -8.67420 | 13583 ft | 370 kts | 61° |
| 2026-05-05 18:36 | 39.04876 | -8.64409 | 14135 ft | 374 kts | 61° |
| 2026-05-05 18:36 | 39.05999 | -8.61369 | 14685 ft | 378 kts | 61° |
| 2026-05-05 18:36 | 39.07135 | -8.58292 | 15239 ft | 382 kts | 61° |
| 2026-05-05 18:37 | 39.08281 | -8.55186 | 15771 ft | 385 kts | 61° |
| 2026-05-05 18:37 | 39.09437 | -8.52049 | 16312 ft | 389 kts | 62° |
| 2026-05-05 18:37 | 39.10602 | -8.48882 | 16854 ft | 393 kts | 62° |
| 2026-05-05 18:37 | 39.11778 | -8.45684 | 17374 ft | 397 kts | 62° |
| 2026-05-05 18:38 | 39.12966 | -8.42447 | 17898 ft | 401 kts | 62° |
| 2026-05-05 18:38 | 39.14162 | -8.39186 | 18411 ft | 405 kts | 62° |
| 2026-05-05 18:38 | 39.15356 | -8.35926 | 18846 ft | 408 kts | 62° |
| 2026-05-05 18:38 | 39.16573 | -8.32600 | 19307 ft | 411 kts | 62° |
| 2026-05-05 18:39 | 39.17796 | -8.29253 | 19762 ft | 414 kts | 62° |
| 2026-05-05 18:39 | 39.19029 | -8.25874 | 20206 ft | 418 kts | 62° |
| 2026-05-05 18:39 | 39.20270 | -8.22470 | 20654 ft | 421 kts | 62° |
| 2026-05-05 18:39 | 39.21519 | -8.19042 | 21098 ft | 424 kts | 62° |
| 2026-05-05 18:40 | 39.22777 | -8.15583 | 21525 ft | 427 kts | 62° |
| 2026-05-05 18:40 | 39.24040 | -8.12106 | 21946 ft | 430 kts | 62° |
| 2026-05-05 18:40 | 39.25314 | -8.08596 | 22357 ft | 433 kts | 62° |
| 2026-05-05 18:40 | 39.26599 | -8.05053 | 22773 ft | 437 kts | 62° |
| 2026-05-05 18:41 | 39.27888 | -8.01488 | 23176 ft | 440 kts | 63° |
| 2026-05-05 18:41 | 39.29067 | -7.97825 | 23566 ft | 444 kts | 66° |
| 2026-05-05 18:41 | 39.30150 | -7.94064 | 23902 ft | 447 kts | 66° |
| 2026-05-05 18:41 | 39.31374 | -7.90362 | 24232 ft | 448 kts | 63° |
| 2026-05-05 18:42 | 39.32716 | -7.86713 | 24560 ft | 451 kts | 61° |
| 2026-05-05 18:42 | 39.34085 | -7.83124 | 24874 ft | 453 kts | 61° |
| 2026-05-05 18:42 | 39.35487 | -7.79458 | 25184 ft | 456 kts | 61° |
| 2026-05-05 18:42 | 39.36886 | -7.75770 | 25492 ft | 459 kts | 61° |
| 2026-05-05 18:43 | 39.38281 | -7.72049 | 25807 ft | 461 kts | 62° |
| 2026-05-05 18:43 | 39.39675 | -7.68291 | 26103 ft | 464 kts | 62° |
| 2026-05-05 18:43 | 39.41066 | -7.64514 | 26404 ft | 467 kts | 62° |
| 2026-05-05 18:43 | 39.42463 | -7.60703 | 26697 ft | 469 kts | 62° |
| 2026-05-05 18:44 | 39.43861 | -7.56879 | 26971 ft | 472 kts | 62° |
| 2026-05-05 18:44 | 39.45269 | -7.53021 | 27259 ft | 474 kts | 62° |
| 2026-05-05 18:44 | 39.46679 | -7.49154 | 27542 ft | 476 kts | 62° |
| 2026-05-05 18:44 | 39.48098 | -7.45260 | 27812 ft | 479 kts | 62° |
| 2026-05-05 18:45 | 39.49523 | -7.41343 | 28075 ft | 481 kts | 62° |
| 2026-05-05 18:45 | 39.50951 | -7.37415 | 28338 ft | 483 kts | 62° |
| 2026-05-05 18:45 | 39.52385 | -7.33464 | 28604 ft | 486 kts | 62° |
| 2026-05-05 18:45 | 39.53824 | -7.29497 | 28851 ft | 488 kts | 62° |
| 2026-05-05 18:46 | 39.55271 | -7.25499 | 29093 ft | 490 kts | 62° |
| 2026-05-05 18:46 | 39.56724 | -7.21483 | 29343 ft | 492 kts | 62° |
| 2026-05-05 18:46 | 39.58177 | -7.17457 | 29577 ft | 495 kts | 62° |
| 2026-05-05 18:46 | 39.59636 | -7.13410 | 29833 ft | 496 kts | 62° |
| 2026-05-05 18:47 | 39.61092 | -7.09367 | 30162 ft | 495 kts | 62° |
| 2026-05-05 18:47 | 39.62527 | -7.05374 | 30472 ft | 494 kts | 62° |
| 2026-05-05 18:47 | 39.63976 | -7.01337 | 30764 ft | 493 kts | 62° |
| 2026-05-05 18:47 | 39.65424 | -6.97299 | 30987 ft | 494 kts | 63° |
| 2026-05-05 18:48 | 39.66873 | -6.93252 | 31225 ft | 494 kts | 62° |
| 2026-05-05 18:48 | 39.68319 | -6.89211 | 31502 ft | 494 kts | 63° |
| 2026-05-05 18:48 | 39.69762 | -6.85169 | 31772 ft | 493 kts | 63° |
| 2026-05-05 18:48 | 39.71204 | -6.81124 | 32021 ft | 493 kts | 63° |
| 2026-05-05 18:49 | 39.72645 | -6.77079 | 32259 ft | 493 kts | 63° |
| 2026-05-05 18:49 | 39.74085 | -6.73030 | 32492 ft | 494 kts | 63° |
| 2026-05-05 18:49 | 39.75522 | -6.68984 | 32742 ft | 493 kts | 63° |
| 2026-05-05 18:49 | 39.76958 | -6.64934 | 32981 ft | 493 kts | 63° |
| 2026-05-05 18:50 | 39.78391 | -6.60887 | 33177 ft | 493 kts | 63° |
| 2026-05-05 18:50 | 39.79826 | -6.56830 | 33375 ft | 494 kts | 63° |
| 2026-05-05 18:50 | 39.81259 | -6.52771 | 33597 ft | 494 kts | 63° |
| 2026-05-05 18:50 | 39.82692 | -6.48707 | 33830 ft | 494 kts | 63° |
| 2026-05-05 18:51 | 39.84123 | -6.44644 | 33963 ft | 495 kts | 63° |
| 2026-05-05 18:51 | 39.85560 | -6.40560 | 33947 ft | 497 kts | 63° |
| 2026-05-05 18:51 | 39.88355 | -6.32391 | 33956 ft | 495 kts | 64° |
| 2026-05-05 18:52 | 39.91071 | -6.24161 | 33944 ft | 493 kts | 64° |
| 2026-05-05 18:52 | 39.93765 | -6.15969 | 33960 ft | 491 kts | 64° |
| 2026-05-05 18:53 | 39.96464 | -6.07787 | 33950 ft | 490 kts | 64° |
| 2026-05-05 18:53 | 39.99157 | -5.99618 | 33955 ft | 490 kts | 64° |
| 2026-05-05 18:54 | 40.01834 | -5.91480 | 33959 ft | 491 kts | 64° |
| 2026-05-05 18:54 | 40.04547 | -5.83209 | 33963 ft | 493 kts | 64° |
| 2026-05-05 18:55 | 40.07227 | -5.75009 | 33956 ft | 495 kts | 64° |
| 2026-05-05 18:55 | 40.09927 | -5.66721 | 33967 ft | 497 kts | 64° |
| 2026-05-05 18:56 | 40.12632 | -5.58392 | 33965 ft | 499 kts | 64° |
| 2026-05-05 18:56 | 40.15341 | -5.50029 | 33963 ft | 500 kts | 64° |
| 2026-05-05 18:57 | 40.18048 | -5.41647 | 33962 ft | 500 kts | 64° |
| 2026-05-05 18:57 | 40.20744 | -5.33267 | 33975 ft | 499 kts | 64° |
| 2026-05-05 18:58 | 40.23433 | -5.24890 | 33961 ft | 499 kts | 64° |
| 2026-05-05 18:58 | 40.26104 | -5.16541 | 33979 ft | 497 kts | 65° |
| 2026-05-05 18:59 | 40.28754 | -5.08234 | 33961 ft | 495 kts | 65° |
| 2026-05-05 18:59 | 40.31398 | -4.99919 | 33969 ft | 494 kts | 65° |
| 2026-05-05 19:00 | 40.34033 | -4.91610 | 33967 ft | 492 kts | 65° |
| 2026-05-05 19:00 | 40.36655 | -4.83315 | 33964 ft | 491 kts | 65° |
| 2026-05-05 19:01 | 40.39264 | -4.75038 | 33966 ft | 491 kts | 65° |
| 2026-05-05 19:01 | 40.41869 | -4.66752 | 33965 ft | 492 kts | 65° |
| 2026-05-05 19:02 | 40.44465 | -4.58483 | 33958 ft | 494 kts | 65° |
| 2026-05-05 19:02 | 40.47083 | -4.50131 | 33965 ft | 496 kts | 65° |
| 2026-05-05 19:03 | 40.49703 | -4.41741 | 33959 ft | 497 kts | 65° |
| 2026-05-05 19:03 | 40.51883 | -4.34740 | 33970 ft | 498 kts | 65° |
| 2026-05-05 19:04 | 40.54506 | -4.26286 | 33955 ft | 500 kts | 65° |
| 2026-05-05 19:04 | 40.57128 | -4.17815 | 33957 ft | 501 kts | 65° |
| 2026-05-05 19:05 | 40.59753 | -4.09306 | 33967 ft | 502 kts | 65° |
| 2026-05-05 19:05 | 40.62374 | -4.00781 | 33968 ft | 502 kts | 65° |
| 2026-05-05 19:06 | 40.64991 | -3.92243 | 33969 ft | 503 kts | 65° |
| 2026-05-05 19:06 | 40.67604 | -3.83691 | 33968 ft | 503 kts | 65° |
| 2026-05-05 19:07 | 40.70211 | -3.75132 | 33971 ft | 503 kts | 65° |
| 2026-05-05 19:07 | 40.72809 | -3.66575 | 33956 ft | 503 kts | 65° |
| 2026-05-05 19:08 | 40.75400 | -3.58010 | 33973 ft | 502 kts | 65° |
| 2026-05-05 19:08 | 40.77985 | -3.49442 | 33967 ft | 502 kts | 65° |
| 2026-05-05 19:09 | 40.80546 | -3.40925 | 33967 ft | 503 kts | 65° |
| 2026-05-05 19:09 | 40.83121 | -3.32331 | 33975 ft | 503 kts | 65° |
| 2026-05-05 19:10 | 40.85655 | -3.23704 | 33962 ft | 505 kts | 69° |
| 2026-05-05 19:10 | 40.87526 | -3.14723 | 33969 ft | 507 kts | 74° |
| 2026-05-05 19:11 | 40.89192 | -3.05662 | 33976 ft | 508 kts | 74° |
| 2026-05-05 19:11 | 40.90911 | -2.96585 | 33969 ft | 509 kts | 73° |
| 2026-05-05 19:12 | 40.92674 | -2.87513 | 33968 ft | 510 kts | 73° |
| 2026-05-05 19:12 | 40.94445 | -2.78396 | 33981 ft | 511 kts | 73° |
| 2026-05-05 19:13 | 40.96205 | -2.69270 | 33967 ft | 512 kts | 73° |
| 2026-05-05 19:13 | 40.97948 | -2.60178 | 33965 ft | 513 kts | 73° |
| 2026-05-05 19:14 | 40.99710 | -2.51040 | 33967 ft | 513 kts | 73° |
| 2026-05-05 19:14 | 41.01478 | -2.41891 | 33968 ft | 512 kts | 73° |
| 2026-05-05 19:15 | 41.03227 | -2.32736 | 33971 ft | 512 kts | 74° |
| 2026-05-05 19:15 | 41.04948 | -2.23582 | 33965 ft | 512 kts | 74° |
| 2026-05-05 19:16 | 41.06649 | -2.14497 | 33963 ft | 511 kts | 74° |
| 2026-05-05 19:16 | 41.08357 | -2.05363 | 33962 ft | 510 kts | 74° |
| 2026-05-05 19:17 | 41.10061 | -1.96237 | 33964 ft | 510 kts | 74° |
| 2026-05-05 19:17 | 41.11759 | -1.87122 | 33957 ft | 509 kts | 75° |
| 2026-05-05 19:18 | 41.13448 | -1.78003 | 33958 ft | 509 kts | 75° |
| 2026-05-05 19:18 | 41.15126 | -1.68898 | 33967 ft | 508 kts | 75° |
| 2026-05-05 19:19 | 41.16798 | -1.59777 | 33967 ft | 508 kts | 75° |
| 2026-05-05 19:19 | 41.18463 | -1.50661 | 33966 ft | 508 kts | 75° |
| 2026-05-05 19:20 | 41.20106 | -1.41611 | 33979 ft | 508 kts | 75° |
| 2026-05-05 19:20 | 41.21756 | -1.32440 | 33969 ft | 507 kts | 76° |
| 2026-05-05 19:21 | 41.23376 | -1.23380 | 33978 ft | 507 kts | 76° |
| 2026-05-05 19:21 | 41.25002 | -1.14254 | 33980 ft | 507 kts | 76° |
| 2026-05-05 19:22 | 41.26622 | -1.05120 | 33968 ft | 507 kts | 76° |
| 2026-05-05 19:22 | 41.28231 | -0.96002 | 33973 ft | 506 kts | 76° |
| 2026-05-05 19:23 | 41.29832 | -0.86880 | 33959 ft | 506 kts | 76° |
| 2026-05-05 19:23 | 41.31423 | -0.77769 | 33959 ft | 505 kts | 77° |
| 2026-05-05 19:24 | 41.33007 | -0.68657 | 33951 ft | 505 kts | 77° |
| 2026-05-05 19:24 | 41.34583 | -0.59550 | 33945 ft | 505 kts | 77° |
| 2026-05-05 19:25 | 41.35527 | -0.50395 | 33935 ft | 502 kts | 92° |
| 2026-05-05 19:25 | 41.35409 | -0.41107 | 33955 ft | 501 kts | 93° |
| 2026-05-05 19:26 | 41.35255 | -0.31831 | 33943 ft | 502 kts | 93° |
| 2026-05-05 19:26 | 41.35156 | -0.22530 | 33937 ft | 502 kts | 92° |
| 2026-05-05 19:27 | 41.35077 | -0.13233 | 33941 ft | 502 kts | 93° |
| 2026-05-05 19:27 | 41.34991 | -0.03994 | 33938 ft | 503 kts | 93° |
| 2026-05-05 19:28 | 41.34894 | 0.05309 | 33940 ft | 503 kts | 93° |
| 2026-05-05 19:28 | 41.34788 | 0.14613 | 33937 ft | 503 kts | 93° |
| 2026-05-05 19:29 | 41.34675 | 0.23922 | 33928 ft | 503 kts | 94° |
| 2026-05-05 19:29 | 41.34549 | 0.33238 | 33933 ft | 503 kts | 94° |
| 2026-05-05 19:30 | 41.34414 | 0.42552 | 33932 ft | 503 kts | 94° |
| 2026-05-05 19:30 | 41.34275 | 0.51870 | 33933 ft | 504 kts | 94° |
| 2026-05-05 19:31 | 41.34126 | 0.61198 | 33934 ft | 505 kts | 94° |
| 2026-05-05 19:31 | 41.33965 | 0.70540 | 33944 ft | 505 kts | 95° |
| 2026-05-05 19:32 | 41.33797 | 0.79917 | 33931 ft | 506 kts | 95° |
| 2026-05-05 19:32 | 41.33622 | 0.89282 | 33925 ft | 507 kts | 95° |
| 2026-05-05 19:33 | 41.33440 | 0.98605 | 33926 ft | 507 kts | 95° |
| 2026-05-05 19:33 | 41.33251 | 1.08001 | 33926 ft | 507 kts | 95° |
| 2026-05-05 19:34 | 41.33052 | 1.17399 | 33906 ft | 507 kts | 96° |
| 2026-05-05 19:35 | 41.32760 | 1.31485 | 33924 ft | 508 kts | 96° |
| 2026-05-05 19:35 | 41.32556 | 1.40885 | 33923 ft | 508 kts | 96° |
| 2026-05-05 19:36 | 41.32343 | 1.50288 | 33926 ft | 509 kts | 96° |
| 2026-05-05 19:36 | 41.32122 | 1.59714 | 33911 ft | 509 kts | 96° |
| 2026-05-05 19:37 | 41.31896 | 1.69082 | 33911 ft | 509 kts | 97° |
| 2026-05-05 19:37 | 41.31643 | 1.78497 | 33902 ft | 509 kts | 97° |
| 2026-05-05 19:38 | 41.31374 | 1.87925 | 33893 ft | 510 kts | 97° |
| 2026-05-05 19:38 | 41.31101 | 1.97347 | 33873 ft | 509 kts | 97° |
| 2026-05-05 19:39 | 41.30823 | 2.06771 | 33881 ft | 508 kts | 97° |
| 2026-05-05 19:39 | 41.29990 | 2.16003 | 33920 ft | 498 kts | 109° |
| 2026-05-05 19:40 | 41.28466 | 2.24969 | 33903 ft | 497 kts | 110° |
| 2026-05-05 19:40 | 41.26910 | 2.33915 | 33902 ft | 497 kts | 110° |
| 2026-05-05 19:41 | 41.25392 | 2.42884 | 33904 ft | 497 kts | 110° |
| 2026-05-05 19:41 | 41.23894 | 2.51855 | 33902 ft | 497 kts | 110° |
| 2026-05-05 19:42 | 41.22401 | 2.60774 | 33897 ft | 498 kts | 110° |
| 2026-05-05 19:42 | 41.20888 | 2.69747 | 33898 ft | 498 kts | 110° |
| 2026-05-05 19:43 | 41.19364 | 2.78737 | 33895 ft | 499 kts | 110° |
| 2026-05-05 19:43 | 41.17826 | 2.87754 | 33892 ft | 500 kts | 110° |
| 2026-05-05 19:44 | 41.16283 | 2.96764 | 33898 ft | 501 kts | 110° |
| 2026-05-05 19:44 | 41.14730 | 3.05785 | 33902 ft | 502 kts | 110° |
| 2026-05-05 19:45 | 41.13167 | 3.14819 | 33903 ft | 502 kts | 110° |
| 2026-05-05 19:45 | 41.11609 | 3.23783 | 33900 ft | 502 kts | 110° |
| 2026-05-05 19:46 | 41.10034 | 3.32799 | 33898 ft | 501 kts | 110° |
| 2026-05-05 19:46 | 41.08457 | 3.41784 | 33896 ft | 499 kts | 110° |
| 2026-05-05 19:47 | 41.06878 | 3.50738 | 33893 ft | 497 kts | 110° |
| 2026-05-05 19:47 | 41.05296 | 3.59637 | 33891 ft | 495 kts | 111° |
| 2026-05-05 19:48 | 41.03705 | 3.68485 | 33889 ft | 492 kts | 111° |
| 2026-05-05 19:48 | 41.02118 | 3.77286 | 33888 ft | 490 kts | 111° |
| 2026-05-05 19:49 | 41.00533 | 3.86045 | 33894 ft | 488 kts | 111° |
| 2026-05-05 19:49 | 40.99219 | 3.93297 | 33893 ft | 487 kts | 111° |
| 2026-05-05 19:50 | 40.97378 | 4.03407 | 33892 ft | 486 kts | 111° |
| 2026-05-05 19:50 | 40.95789 | 4.12090 | 33895 ft | 485 kts | 111° |
| 2026-05-05 19:51 | 40.94194 | 4.20771 | 33893 ft | 486 kts | 111° |
| 2026-05-05 19:51 | 40.92850 | 4.28052 | 33901 ft | 486 kts | 111° |
| 2026-05-05 19:52 | 40.91250 | 4.36689 | 33898 ft | 487 kts | 111° |
| 2026-05-05 19:52 | 40.89630 | 4.45402 | 33895 ft | 488 kts | 111° |
| 2026-05-05 19:53 | 40.88016 | 4.54136 | 33895 ft | 489 kts | 111° |
| 2026-05-05 19:53 | 40.86405 | 4.62892 | 33897 ft | 490 kts | 111° |
| 2026-05-05 19:54 | 40.85076 | 4.71762 | 33905 ft | 496 kts | 104° |
| 2026-05-05 19:54 | 40.84281 | 4.80838 | 33897 ft | 498 kts | 103° |
| 2026-05-05 19:55 | 40.83529 | 4.89913 | 33901 ft | 497 kts | 103° |
| 2026-05-05 19:55 | 40.82721 | 4.98903 | 33900 ft | 495 kts | 104° |
| 2026-05-05 19:56 | 40.81870 | 5.07909 | 33904 ft | 493 kts | 104° |
| 2026-05-05 19:56 | 40.81009 | 5.16889 | 33901 ft | 492 kts | 104° |
| 2026-05-05 19:57 | 40.80146 | 5.25847 | 33901 ft | 491 kts | 104° |
| 2026-05-05 19:57 | 40.79281 | 5.34774 | 33906 ft | 490 kts | 104° |
| 2026-05-05 19:58 | 40.78410 | 5.43693 | 33910 ft | 490 kts | 104° |
| 2026-05-05 19:58 | 40.77532 | 5.52604 | 33910 ft | 489 kts | 104° |
| 2026-05-05 19:59 | 40.76648 | 5.61504 | 33919 ft | 490 kts | 104° |
| 2026-05-05 19:59 | 40.75761 | 5.70373 | 33914 ft | 490 kts | 104° |
| 2026-05-05 20:00 | 40.74860 | 5.79303 | 33918 ft | 491 kts | 104° |
| 2026-05-05 20:00 | 40.73954 | 5.88231 | 33912 ft | 492 kts | 104° |
| 2026-05-05 20:01 | 40.73037 | 5.97186 | 33918 ft | 492 kts | 104° |
| 2026-05-05 20:01 | 40.72108 | 6.06131 | 33928 ft | 492 kts | 104° |
| 2026-05-05 20:02 | 40.71171 | 6.15074 | 33924 ft | 493 kts | 104° |
| 2026-05-05 20:02 | 40.70228 | 6.24028 | 33926 ft | 493 kts | 104° |
| 2026-05-05 20:03 | 40.69279 | 6.32969 | 33923 ft | 492 kts | 104° |
| 2026-05-05 20:03 | 40.68332 | 6.41834 | 33929 ft | 491 kts | 104° |
| 2026-05-05 20:04 | 40.67373 | 6.50739 | 33930 ft | 490 kts | 104° |
| 2026-05-05 20:04 | 40.66410 | 6.59621 | 33933 ft | 489 kts | 104° |
| 2026-05-05 20:05 | 40.65441 | 6.68480 | 33931 ft | 488 kts | 104° |
| 2026-05-05 20:05 | 40.64469 | 6.77313 | 33934 ft | 486 kts | 104° |
| 2026-05-05 20:06 | 40.63492 | 6.86123 | 33934 ft | 485 kts | 104° |
| 2026-05-05 20:06 | 40.62511 | 6.94905 | 33940 ft | 484 kts | 104° |
| 2026-05-05 20:07 | 40.61535 | 7.03578 | 33940 ft | 484 kts | 104° |
| 2026-05-05 20:07 | 40.60544 | 7.12331 | 33950 ft | 484 kts | 104° |
| 2026-05-05 20:08 | 40.59551 | 7.21039 | 33951 ft | 484 kts | 104° |
| 2026-05-05 20:08 | 40.58545 | 7.29806 | 33952 ft | 484 kts | 104° |
| 2026-05-05 20:09 | 40.57533 | 7.38566 | 33952 ft | 485 kts | 103° |
| 2026-05-05 20:09 | 40.56585 | 7.47372 | 33937 ft | 488 kts | 98° |
| 2026-05-05 20:10 | 40.56948 | 7.56350 | 33968 ft | 495 kts | 86° |
| 2026-05-05 20:10 | 40.57818 | 7.65276 | 33959 ft | 495 kts | 86° |
| 2026-05-05 20:11 | 40.58643 | 7.74279 | 33960 ft | 495 kts | 86° |
| 2026-05-05 20:11 | 40.59409 | 7.83290 | 33958 ft | 495 kts | 87° |
| 2026-05-05 20:12 | 40.60159 | 7.92291 | 33961 ft | 495 kts | 87° |
| 2026-05-05 20:12 | 40.60907 | 8.01285 | 33960 ft | 494 kts | 87° |
| 2026-05-05 20:13 | 40.61649 | 8.10281 | 33963 ft | 493 kts | 87° |
| 2026-05-05 20:13 | 40.62383 | 8.19251 | 33971 ft | 492 kts | 88° |
| 2026-05-05 20:14 | 40.62188 | 8.28145 | 33954 ft | 481 kts | 106° |
| 2026-05-05 20:14 | 40.60588 | 8.36584 | 33961 ft | 477 kts | 110° |
| 2026-05-05 20:15 | 40.58890 | 8.45022 | 33967 ft | 477 kts | 109° |
| 2026-05-05 20:15 | 40.57225 | 8.53476 | 33961 ft | 477 kts | 109° |
| 2026-05-05 20:16 | 40.55585 | 8.61929 | 33967 ft | 477 kts | 109° |
| 2026-05-05 20:16 | 40.53948 | 8.70378 | 33978 ft | 477 kts | 109° |
| 2026-05-05 20:17 | 40.52307 | 8.78807 | 33972 ft | 479 kts | 109° |
| 2026-05-05 20:17 | 40.50645 | 8.87296 | 33979 ft | 480 kts | 109° |
| 2026-05-05 20:18 | 40.48970 | 8.95821 | 33979 ft | 482 kts | 109° |
| 2026-05-05 20:18 | 40.47284 | 9.04358 | 33994 ft | 483 kts | 109° |
| 2026-05-05 20:19 | 40.45599 | 9.12861 | 33994 ft | 484 kts | 109° |
| 2026-05-05 20:19 | 40.43893 | 9.21427 | 33993 ft | 485 kts | 109° |
| 2026-05-05 20:20 | 40.42180 | 9.29996 | 33985 ft | 485 kts | 109° |
| 2026-05-05 20:20 | 40.40464 | 9.38552 | 33990 ft | 484 kts | 109° |
| 2026-05-05 20:21 | 40.38746 | 9.47075 | 33980 ft | 482 kts | 109° |
| 2026-05-05 20:21 | 40.37029 | 9.55557 | 33989 ft | 480 kts | 109° |
| 2026-05-05 20:22 | 40.35316 | 9.63986 | 33979 ft | 477 kts | 109° |
| 2026-05-05 20:22 | 40.33605 | 9.72370 | 33984 ft | 475 kts | 109° |
| 2026-05-05 20:23 | 40.31907 | 9.80657 | 33984 ft | 472 kts | 109° |
| 2026-05-05 20:23 | 40.30200 | 9.88953 | 33981 ft | 470 kts | 109° |
| 2026-05-05 20:24 | 40.28494 | 9.97215 | 33984 ft | 469 kts | 109° |
| 2026-05-05 20:24 | 40.26788 | 10.05438 | 33988 ft | 468 kts | 109° |
| 2026-05-05 20:25 | 40.25078 | 10.13652 | 33993 ft | 467 kts | 109° |
| 2026-05-05 20:25 | 40.23364 | 10.21854 | 33992 ft | 467 kts | 109° |
| 2026-05-05 20:26 | 40.21642 | 10.30060 | 33999 ft | 468 kts | 109° |
| 2026-05-05 20:26 | 40.19911 | 10.38282 | 33998 ft | 469 kts | 109° |
| 2026-05-05 20:27 | 40.18170 | 10.46527 | 34001 ft | 471 kts | 109° |
| 2026-05-05 20:27 | 40.16429 | 10.54795 | 34002 ft | 473 kts | 107° |
| 2026-05-05 20:28 | 40.15089 | 10.63181 | 34011 ft | 475 kts | 103° |
| 2026-05-05 20:28 | 40.13888 | 10.71712 | 34007 ft | 477 kts | 103° |
| 2026-05-05 20:29 | 40.12671 | 10.80240 | 34002 ft | 477 kts | 103° |
| 2026-05-05 20:29 | 40.11416 | 10.88757 | 34021 ft | 477 kts | 104° |
| 2026-05-05 20:30 | 40.10140 | 10.97269 | 34019 ft | 477 kts | 104° |
| 2026-05-05 20:30 | 40.08856 | 11.05777 | 34027 ft | 477 kts | 104° |
| 2026-05-05 20:31 | 40.07569 | 11.14262 | 34019 ft | 476 kts | 104° |
| 2026-05-05 20:31 | 40.06285 | 11.22689 | 34019 ft | 475 kts | 104° |
| 2026-05-05 20:32 | 40.04991 | 11.31146 | 34030 ft | 474 kts | 104° |
| 2026-05-05 20:32 | 40.03695 | 11.39567 | 34029 ft | 473 kts | 104° |
| 2026-05-05 20:33 | 40.02395 | 11.47977 | 34028 ft | 472 kts | 104° |
| 2026-05-05 20:33 | 40.01091 | 11.56363 | 34032 ft | 471 kts | 104° |
| 2026-05-05 20:34 | 39.99784 | 11.64735 | 34037 ft | 471 kts | 104° |
| 2026-05-05 20:34 | 39.98468 | 11.73116 | 34040 ft | 471 kts | 104° |
| 2026-05-05 20:35 | 39.97146 | 11.81493 | 34041 ft | 471 kts | 104° |
| 2026-05-05 20:35 | 39.95818 | 11.89867 | 34049 ft | 472 kts | 104° |
| 2026-05-05 20:36 | 39.94490 | 11.98202 | 34047 ft | 473 kts | 104° |
| 2026-05-05 20:36 | 39.93147 | 12.06592 | 34049 ft | 473 kts | 104° |
| 2026-05-05 20:37 | 39.92016 | 12.13624 | 34051 ft | 474 kts | 104° |
| 2026-05-05 20:37 | 39.90666 | 12.21980 | 34050 ft | 474 kts | 104° |
| 2026-05-05 20:38 | 39.89301 | 12.30390 | 34051 ft | 475 kts | 104° |
| 2026-05-05 20:38 | 39.87928 | 12.38807 | 34054 ft | 475 kts | 104° |
| 2026-05-05 20:39 | 39.86551 | 12.47213 | 34054 ft | 475 kts | 104° |
| 2026-05-05 20:39 | 39.85167 | 12.55617 | 34055 ft | 474 kts | 104° |
| 2026-05-05 20:40 | 39.83776 | 12.64018 | 34061 ft | 474 kts | 104° |
| 2026-05-05 20:40 | 39.82382 | 12.72405 | 34056 ft | 473 kts | 104° |
| 2026-05-05 20:41 | 39.80994 | 12.80713 | 34055 ft | 473 kts | 104° |
| 2026-05-05 20:41 | 39.79594 | 12.89056 | 34059 ft | 472 kts | 104° |
| 2026-05-05 20:42 | 39.78189 | 12.97390 | 34057 ft | 471 kts | 104° |
| 2026-05-05 20:42 | 39.76780 | 13.05705 | 34060 ft | 471 kts | 104° |
| 2026-05-05 20:43 | 39.75367 | 13.14007 | 34058 ft | 470 kts | 104° |
| 2026-05-05 20:43 | 39.73950 | 13.22298 | 34065 ft | 470 kts | 104° |
| 2026-05-05 20:44 | 39.72525 | 13.30590 | 34059 ft | 470 kts | 104° |
| 2026-05-05 20:44 | 39.71095 | 13.38880 | 34069 ft | 470 kts | 104° |
| 2026-05-05 20:45 | 39.68938 | 13.51313 | 34065 ft | 471 kts | 104° |
| 2026-05-05 20:45 | 39.67491 | 13.59603 | 34060 ft | 471 kts | 104° |
| 2026-05-05 20:46 | 39.66038 | 13.67897 | 34059 ft | 472 kts | 104° |
| 2026-05-05 20:46 | 39.64575 | 13.76203 | 34062 ft | 472 kts | 104° |
| 2026-05-05 20:47 | 39.63105 | 13.84516 | 34067 ft | 472 kts | 104° |
| 2026-05-05 20:47 | 39.61640 | 13.92766 | 34065 ft | 472 kts | 104° |
| 2026-05-05 20:48 | 39.60154 | 14.01090 | 34062 ft | 473 kts | 104° |
| 2026-05-05 20:48 | 39.58665 | 14.09400 | 34064 ft | 473 kts | 104° |
| 2026-05-05 20:49 | 39.57169 | 14.17713 | 34065 ft | 473 kts | 104° |
| 2026-05-05 20:49 | 39.55677 | 14.25964 | 34067 ft | 474 kts | 104° |
| 2026-05-05 20:50 | 39.54166 | 14.34287 | 34072 ft | 474 kts | 104° |
| 2026-05-05 20:50 | 39.52649 | 14.42607 | 34073 ft | 474 kts | 104° |
| 2026-05-05 20:51 | 39.51127 | 14.50916 | 34064 ft | 475 kts | 104° |
| 2026-05-05 20:51 | 39.49595 | 14.59245 | 34073 ft | 475 kts | 104° |
| 2026-05-05 20:52 | 39.48056 | 14.67576 | 34068 ft | 476 kts | 104° |
| 2026-05-05 20:52 | 39.46510 | 14.75905 | 34064 ft | 476 kts | 104° |
| 2026-05-05 20:53 | 39.44968 | 14.84183 | 34069 ft | 476 kts | 104° |
| 2026-05-05 20:53 | 39.43407 | 14.92526 | 34067 ft | 477 kts | 104° |
| 2026-05-05 20:54 | 39.41840 | 15.00865 | 34072 ft | 477 kts | 104° |
| 2026-05-05 20:54 | 39.40264 | 15.09213 | 34073 ft | 478 kts | 104° |
| 2026-05-05 20:55 | 39.38683 | 15.17556 | 34069 ft | 478 kts | 104° |
| 2026-05-05 20:55 | 39.37093 | 15.25910 | 34069 ft | 478 kts | 104° |
| 2026-05-05 20:56 | 39.35507 | 15.34210 | 34069 ft | 479 kts | 104° |
| 2026-05-05 20:56 | 39.33904 | 15.42561 | 34071 ft | 479 kts | 104° |
| 2026-05-05 20:57 | 39.32294 | 15.50916 | 34069 ft | 479 kts | 104° |
| 2026-05-05 20:57 | 39.31079 | 15.57194 | 34072 ft | 480 kts | 104° |